createdAt,value
2022-10-31T00:00:48.557Z,101477.69
2022-10-31T00:03:33.852Z,101467.34
2022-10-31T00:06:19.311Z,101469.97
2022-10-31T00:09:05.780Z,101462.72
2022-10-31T00:11:51.083Z,101469.25
2022-10-31T00:14:36.324Z,101472.84
2022-10-31T00:17:21.550Z,101465.16
2022-10-31T00:20:07.249Z,101452.00
2022-10-31T00:22:52.540Z,101456.84
2022-10-31T00:25:39.676Z,101464.41
2022-10-31T00:28:25.019Z,101455.38
2022-10-31T00:31:12.469Z,101453.56
2022-10-31T00:33:58.693Z,101462.72
2022-10-31T00:36:43.969Z,101470.72
2022-10-31T00:39:29.339Z,101457.69
2022-10-31T00:42:14.192Z,101471.78
2022-10-31T00:44:59.211Z,101462.75
2022-10-31T00:47:44.112Z,101457.47
2022-10-31T00:50:29.032Z,101460.22
2022-10-31T00:53:14.174Z,101473.19
2022-10-31T00:55:59.540Z,101470.78
2022-10-31T00:58:44.788Z,101464.00
2022-10-31T01:01:30.087Z,101478.84
2022-10-31T01:04:15.187Z,101466.97
2022-10-31T01:07:00.317Z,101475.50
2022-10-31T01:09:45.250Z,101472.00
2022-10-31T01:12:30.201Z,101474.63
2022-10-31T01:15:20.571Z,101484.34
2022-10-31T01:18:05.557Z,101486.88
2022-10-31T01:21:07.924Z,101477.28
2022-10-31T01:23:57.212Z,101478.31
2022-10-31T01:26:42.129Z,101474.75
2022-10-31T01:29:27.277Z,101473.28
2022-10-31T01:32:12.577Z,101476.88
2022-10-31T01:34:57.993Z,101455.56
2022-10-31T01:37:42.827Z,101476.25
2022-10-31T01:40:30.731Z,101455.78
2022-10-31T01:43:16.213Z,101461.03
2022-10-31T01:46:01.121Z,101468.50
2022-10-31T01:48:47.140Z,101454.53
2022-10-31T01:51:38.222Z,101470.09
2022-10-31T01:54:29.463Z,101454.09
2022-10-31T01:57:16.306Z,101472.94
2022-10-31T02:00:07.296Z,101458.94
2022-10-31T02:02:52.922Z,101457.97
2022-10-31T02:05:38.469Z,101459.91
2022-10-31T02:08:32.143Z,101456.44
2022-10-31T02:11:17.451Z,101455.78
2022-10-31T02:14:04.124Z,101443.25
2022-10-31T02:16:48.913Z,101456.72
2022-10-31T02:19:58.609Z,101453.25
2022-10-31T02:22:59.076Z,101449.34
2022-10-31T02:26:02.904Z,101447.25
2022-10-31T02:29:39.721Z,101444.41
2022-10-31T02:33:00.948Z,101452.41
2022-10-31T02:36:03.220Z,101449.13
2022-10-31T02:39:03.026Z,101441.25
2022-10-31T02:41:59.915Z,101424.09
2022-10-31T02:45:01.805Z,101433.88
2022-10-31T02:47:50.450Z,101431.16
2022-10-31T02:50:40.786Z,101423.34
2022-10-31T02:53:26.407Z,101425.22
2022-10-31T02:56:17.747Z,101415.88
2022-10-31T02:59:05.645Z,101429.56
2022-10-31T03:02:08.705Z,101412.41
2022-10-31T03:05:29.146Z,101420.63
2022-10-31T03:08:22.587Z,101425.88
2022-10-31T03:11:09.218Z,101425.88
2022-10-31T03:14:27.762Z,101428.63
2022-10-31T03:17:26.817Z,101430.50
2022-10-31T03:20:12.110Z,101422.50
2022-10-31T03:22:59.329Z,101419.13
2022-10-31T03:25:45.051Z,101421.88
2022-10-31T03:28:32.992Z,101416.50
2022-10-31T03:31:20.367Z,101415.75
2022-10-31T03:34:07.066Z,101409.78
2022-10-31T03:36:56.818Z,101412.41
2022-10-31T03:39:44.104Z,101410.00
2022-10-31T03:42:32.490Z,101416.31
2022-10-31T03:45:30.949Z,101415.78
2022-10-31T03:48:19.276Z,101414.94
2022-10-31T03:51:16.043Z,101422.72
2022-10-31T03:54:11.917Z,101414.06
2022-10-31T03:57:20.113Z,101419.34
2022-10-31T04:00:11.882Z,101416.91
2022-10-31T04:03:10.860Z,101417.03
2022-10-31T04:05:59.651Z,101409.34
2022-10-31T04:08:50.789Z,101411.03
2022-10-31T04:11:39.243Z,101415.56
2022-10-31T04:14:26.742Z,101420.91
2022-10-31T04:17:15.832Z,101414.28
2022-10-31T04:20:01.899Z,101413.84
2022-10-31T04:22:46.843Z,101414.03
2022-10-31T04:25:32.130Z,101419.91
2022-10-31T04:28:17.187Z,101423.34
2022-10-31T04:31:02.547Z,101416.69
2022-10-31T04:33:47.811Z,101405.00
2022-10-31T04:36:33.098Z,101419.81
2022-10-31T04:39:21.311Z,101415.13
2022-10-31T04:42:08.835Z,101413.75
2022-10-31T04:44:53.743Z,101407.94
2022-10-31T04:47:38.807Z,101404.59
2022-10-31T04:50:23.779Z,101387.06
2022-10-31T04:53:08.857Z,101381.50
2022-10-31T04:55:54.004Z,101385.38
2022-10-31T04:58:39.210Z,101382.84
2022-10-31T05:01:24.255Z,101386.88
2022-10-31T05:04:09.562Z,101377.38
2022-10-31T05:06:54.821Z,101385.50
2022-10-31T05:09:39.743Z,101374.56
2022-10-31T05:12:25.116Z,101368.25
2022-10-31T05:15:10.046Z,101384.47
2022-10-31T05:17:56.310Z,101391.50
2022-10-31T05:20:41.223Z,101393.38
2022-10-31T05:23:26.103Z,101398.94
2022-10-31T05:26:11.202Z,101389.06
2022-10-31T05:28:56.436Z,101365.38
2022-10-31T05:31:41.642Z,101376.78
2022-10-31T05:34:26.584Z,101371.81
2022-10-31T05:37:11.813Z,101372.69
2022-10-31T05:39:56.630Z,101375.38
2022-10-31T05:42:42.484Z,101372.00
2022-10-31T05:45:27.829Z,101373.16
2022-10-31T05:48:13.095Z,101359.75
2022-10-31T05:50:58.466Z,101365.00
2022-10-31T05:53:43.319Z,101357.53
2022-10-31T05:56:28.280Z,101349.84
2022-10-31T05:59:13.186Z,101357.06
2022-10-31T06:01:58.373Z,101354.31
2022-10-31T06:04:43.704Z,101359.56
2022-10-31T06:07:33.582Z,101361.78
2022-10-31T06:10:20.311Z,101361.06
2022-10-31T06:13:07.459Z,101348.50
2022-10-31T06:15:52.297Z,101355.22
2022-10-31T06:18:37.301Z,101348.50
2022-10-31T06:21:22.548Z,101349.06
2022-10-31T06:24:08.041Z,101344.41
2022-10-31T06:26:53.320Z,101331.47
2022-10-31T06:29:38.339Z,101349.19
2022-10-31T06:32:24.025Z,101338.22
2022-10-31T06:35:09.348Z,101352.75
2022-10-31T06:37:54.977Z,101343.22
2022-10-31T06:40:39.982Z,101328.13
2022-10-31T06:43:24.698Z,101326.06
2022-10-31T06:46:09.811Z,101325.19
2022-10-31T06:48:54.729Z,101329.59
2022-10-31T06:51:39.726Z,101318.66
2022-10-31T06:54:25.119Z,101329.41
2022-10-31T06:57:10.130Z,101328.88
2022-10-31T06:59:55.234Z,101333.09
2022-10-31T07:02:40.255Z,101327.09
2022-10-31T07:05:26.628Z,101325.50
2022-10-31T07:08:13.964Z,101307.41
2022-10-31T07:10:59.027Z,101314.44
2022-10-31T07:13:44.647Z,101309.00
2022-10-31T07:16:29.850Z,101307.31
2022-10-31T07:19:14.955Z,101294.03
2022-10-31T07:21:59.806Z,101316.50
2022-10-31T07:24:44.914Z,101299.84
2022-10-31T07:27:29.766Z,101311.25
2022-10-31T07:30:15.769Z,101311.56
2022-10-31T07:33:00.845Z,101307.34
2022-10-31T07:35:46.044Z,101307.34
2022-10-31T07:38:36.580Z,101318.09
2022-10-31T07:41:22.404Z,101295.63
2022-10-31T07:44:07.229Z,101298.91
2022-10-31T07:46:52.500Z,101299.09
2022-10-31T07:49:37.558Z,101309.19
2022-10-31T07:52:22.813Z,101305.66
2022-10-31T07:55:08.700Z,101312.09
2022-10-31T07:58:04.603Z,101309.22
2022-10-31T08:00:49.942Z,101302.72
2022-10-31T08:03:35.070Z,101311.44
2022-10-31T08:06:20.196Z,101314.06
2022-10-31T08:09:05.548Z,101312.34
2022-10-31T08:11:50.495Z,101318.16
2022-10-31T08:14:42.039Z,101308.63
2022-10-31T08:17:27.512Z,101306.06
2022-10-31T08:20:12.702Z,101315.91
2022-10-31T08:22:59.982Z,101310.38
2022-10-31T08:25:47.797Z,101304.72
2022-10-31T08:28:33.348Z,101301.81
2022-10-31T08:31:18.258Z,101304.78
2022-10-31T08:34:03.404Z,101302.72
2022-10-31T08:36:48.598Z,101302.31
2022-10-31T08:39:33.454Z,101294.06
2022-10-31T08:42:18.415Z,101294.63
2022-10-31T08:45:03.745Z,101276.72
2022-10-31T08:47:48.706Z,101296.53
2022-10-31T08:50:35.485Z,101287.53
2022-10-31T08:53:20.677Z,101284.31
2022-10-31T08:56:06.091Z,101282.94
2022-10-31T08:58:53.593Z,101261.09
2022-10-31T09:01:38.973Z,101266.28
2022-10-31T09:04:24.468Z,101267.56
2022-10-31T09:07:25.059Z,101253.31
2022-10-31T09:10:10.333Z,101258.34
2022-10-31T09:12:57.369Z,101255.72
2022-10-31T09:15:44.731Z,101252.44
2022-10-31T09:18:30.500Z,101243.03
2022-10-31T09:21:15.910Z,101235.19
2022-10-31T09:24:01.111Z,101233.94
2022-10-31T09:26:46.288Z,101246.59
2022-10-31T09:29:31.563Z,101233.56
2022-10-31T09:32:16.427Z,101238.59
2022-10-31T09:35:01.664Z,101241.81
2022-10-31T09:37:46.701Z,101229.38
2022-10-31T09:40:50.002Z,101222.72
2022-10-31T09:43:47.010Z,101218.06
2022-10-31T09:46:44.108Z,101216.50
2022-10-31T09:49:52.511Z,101204.06
2022-10-31T09:52:41.993Z,101194.75
2022-10-31T09:55:44.091Z,101202.16
2022-10-31T09:58:33.031Z,101201.72
2022-10-31T10:01:29.670Z,101200.88
2022-10-31T10:04:33.592Z,101198.34
2022-10-31T10:07:29.809Z,101199.44
2022-10-31T10:10:37.332Z,101196.81
2022-10-31T10:13:31.603Z,101194.41
2022-10-31T10:16:55.924Z,101185.03
2022-10-31T10:19:53.197Z,101183.94
2022-10-31T10:22:55.431Z,101174.59
2022-10-31T10:25:42.626Z,101184.56
2022-10-31T10:28:39.000Z,101171.97
2022-10-31T10:31:36.075Z,101178.25
2022-10-31T10:34:21.223Z,101176.19
2022-10-31T10:37:25.048Z,101157.56
2022-10-31T10:40:29.797Z,101171.06
2022-10-31T10:43:37.374Z,101153.22
2022-10-31T10:46:45.873Z,101155.75
2022-10-31T10:49:44.175Z,101169.56
2022-10-31T10:52:50.748Z,101166.94
2022-10-31T10:55:48.288Z,101155.53
2022-10-31T10:58:33.168Z,101168.25
2022-10-31T11:01:18.120Z,101153.34
2022-10-31T11:04:04.019Z,101155.16
2022-10-31T11:07:07.965Z,101136.88
2022-10-31T11:10:05.088Z,101143.00
2022-10-31T11:13:24.313Z,101131.41
2022-10-31T11:16:16.011Z,101118.09
2022-10-31T11:19:13.555Z,101116.78
2022-10-31T11:22:15.633Z,101094.81
2022-10-31T11:25:00.707Z,101101.84
2022-10-31T11:27:47.180Z,101099.19
2022-10-31T11:30:43.195Z,101100.97
2022-10-31T11:33:48.962Z,101091.88
2022-10-31T11:36:37.835Z,101084.88
2022-10-31T11:39:24.980Z,101078.59
2022-10-31T11:42:10.020Z,101069.19
2022-10-31T11:44:56.559Z,101064.63
2022-10-31T11:47:47.029Z,101065.88
2022-10-31T11:50:39.519Z,101053.59
2022-10-31T11:53:34.828Z,101050.97
2022-10-31T11:56:19.995Z,101037.13
2022-10-31T11:59:16.447Z,101034.66
2022-10-31T12:02:02.941Z,101038.75
2022-10-31T12:04:55.165Z,101025.53
2022-10-31T12:07:40.421Z,101022.28
2022-10-31T12:10:42.802Z,101014.81
2022-10-31T12:14:10.226Z,101004.78
2022-10-31T12:17:01.434Z,100988.09
2022-10-31T12:20:00.385Z,100985.88
2022-10-31T12:23:09.774Z,100983.47
2022-10-31T12:26:00.355Z,100977.91
2022-10-31T12:29:10.336Z,100970.66
2022-10-31T12:32:26.318Z,100956.44
2022-10-31T12:35:11.490Z,100948.94
2022-10-31T12:38:21.459Z,100952.00
2022-10-31T12:41:24.656Z,100943.53
2022-10-31T12:44:30.850Z,100933.22
2022-10-31T12:47:15.724Z,100926.41
2022-10-31T12:50:03.749Z,100930.00
2022-10-31T12:53:00.949Z,100915.38
2022-10-31T12:55:49.497Z,100903.84
2022-10-31T12:58:52.592Z,100880.25
2022-10-31T13:01:50.876Z,100878.03
2022-10-31T13:04:54.600Z,100880.44
2022-10-31T13:07:49.428Z,100872.38
2022-10-31T13:10:44.437Z,100868.91
2022-10-31T13:13:41.025Z,100870.56
2022-10-31T13:16:31.611Z,100851.81
2022-10-31T13:19:41.206Z,100859.00
2022-10-31T13:22:32.752Z,100845.97
2022-10-31T13:25:33.352Z,100840.91
2022-10-31T13:28:39.808Z,100834.25
2022-10-31T13:31:24.784Z,100827.00
2022-10-31T13:34:26.297Z,100809.63
2022-10-31T13:37:23.762Z,100803.09
2022-10-31T13:40:42.808Z,100792.13
2022-10-31T13:43:39.908Z,100787.38
2022-10-31T13:46:34.295Z,100779.72
2022-10-31T13:49:31.192Z,100772.44
2022-10-31T13:52:27.482Z,100766.75
2022-10-31T13:55:37.868Z,100765.78
2022-10-31T13:58:31.304Z,100767.44
2022-10-31T14:01:23.596Z,100757.31
2022-10-31T14:04:24.715Z,100750.06
2022-10-31T14:07:13.848Z,100743.53
2022-10-31T14:10:07.057Z,100716.72
2022-10-31T14:12:52.912Z,100717.53
2022-10-31T14:15:42.020Z,100712.94
2022-10-31T14:18:37.528Z,100716.53
2022-10-31T14:21:25.792Z,100714.06
2022-10-31T14:24:34.882Z,100695.97
2022-10-31T14:27:26.433Z,100695.41
2022-10-31T14:30:17.061Z,100659.00
2022-10-31T14:33:13.520Z,100678.31
2022-10-31T14:36:26.159Z,100655.41
2022-10-31T14:39:24.627Z,100664.00
2022-10-31T14:43:03.271Z,100642.59
2022-10-31T14:45:54.223Z,100649.38
2022-10-31T14:48:55.225Z,100643.16
2022-10-31T14:51:45.173Z,100638.97
2022-10-31T14:54:35.020Z,100626.59
2022-10-31T14:57:28.495Z,100625.91
2022-10-31T15:00:22.472Z,100606.84
2022-10-31T15:03:18.424Z,100610.63
2022-10-31T15:06:13.680Z,100603.69
2022-10-31T15:08:58.759Z,100596.88
2022-10-31T15:11:43.722Z,100580.47
2022-10-31T15:14:31.268Z,100578.81
2022-10-31T15:17:16.888Z,100572.13
2022-10-31T15:20:02.515Z,100561.44
2022-10-31T15:22:48.920Z,100556.84
2022-10-31T15:25:35.752Z,100551.88
2022-10-31T15:28:26.004Z,100537.97
2022-10-31T15:31:16.216Z,100526.28
2022-10-31T15:34:13.337Z,100515.16
2022-10-31T15:36:58.636Z,100515.31
2022-10-31T15:39:44.990Z,100500.03
2022-10-31T15:42:36.431Z,100495.31
2022-10-31T15:45:27.904Z,100487.84
2022-10-31T15:48:19.166Z,100478.41
2022-10-31T15:51:04.222Z,100475.06
2022-10-31T15:53:53.440Z,100474.50
2022-10-31T15:56:38.781Z,100468.84
2022-10-31T15:59:28.376Z,100468.13
2022-10-31T16:02:18.827Z,100453.53
2022-10-31T16:05:17.468Z,100440.34
2022-10-31T16:08:02.372Z,100445.91
2022-10-31T16:10:47.523Z,100428.97
2022-10-31T16:13:38.452Z,100421.34
2022-10-31T16:16:39.696Z,100421.50
2022-10-31T16:19:36.499Z,100413.31
2022-10-31T16:22:29.099Z,100424.13
2022-10-31T16:25:18.728Z,100401.81
2022-10-31T16:28:27.132Z,100392.19
2022-10-31T16:31:16.111Z,100385.28
2022-10-31T16:34:26.356Z,100367.50
2022-10-31T16:37:12.218Z,100355.03
2022-10-31T16:39:57.361Z,100359.06
2022-10-31T16:42:44.133Z,100350.44
2022-10-31T16:45:31.953Z,100335.75
2022-10-31T16:48:23.394Z,100350.47
2022-10-31T16:51:08.984Z,100381.69
2022-10-31T16:53:54.421Z,100383.63
2022-10-31T16:56:39.667Z,100398.50
2022-10-31T16:59:24.769Z,100402.50
2022-10-31T17:02:15.550Z,100368.22
2022-10-31T17:05:00.734Z,100357.09
2022-10-31T17:07:46.217Z,100356.97
2022-10-31T17:10:31.642Z,100355.16
2022-10-31T17:13:23.831Z,100357.97
2022-10-31T17:16:09.316Z,100353.78
2022-10-31T17:18:54.510Z,100337.69
2022-10-31T17:21:40.700Z,100332.84
2022-10-31T17:24:25.973Z,100344.50
2022-10-31T17:27:11.160Z,100340.03
2022-10-31T17:29:56.599Z,100336.44
2022-10-31T17:32:42.640Z,100332.00
2022-10-31T17:35:27.939Z,100339.09
2022-10-31T17:38:13.352Z,100328.25
2022-10-31T17:40:58.308Z,100318.53
2022-10-31T17:43:43.338Z,100314.78
2022-10-31T17:46:28.879Z,100302.03
2022-10-31T17:49:13.979Z,100294.97
2022-10-31T17:51:59.102Z,100300.38
2022-10-31T17:54:44.187Z,100291.59
2022-10-31T17:57:33.928Z,100291.34
2022-10-31T18:00:21.013Z,100288.69
2022-10-31T18:03:07.232Z,100270.09
2022-10-31T18:05:57.674Z,100255.81
2022-10-31T18:08:43.806Z,100238.72
2022-10-31T18:11:29.211Z,100246.09
2022-10-31T18:14:14.262Z,100239.41
2022-10-31T18:16:59.226Z,100234.44
2022-10-31T18:19:45.738Z,100223.75
2022-10-31T18:22:31.121Z,100225.97
2022-10-31T18:25:16.373Z,100217.06
2022-10-31T18:28:02.493Z,100208.16
2022-10-31T18:30:47.960Z,100214.13
2022-10-31T18:33:33.384Z,100200.53
2022-10-31T18:36:18.623Z,100204.09
2022-10-31T18:39:03.575Z,100194.13
2022-10-31T18:41:48.876Z,100188.03
2022-10-31T18:44:34.292Z,100181.47
2022-10-31T18:47:19.947Z,100171.59
2022-10-31T18:50:05.572Z,100163.69
2022-10-31T18:52:50.618Z,100155.78
2022-10-31T18:55:45.383Z,100143.84
2022-10-31T18:58:33.990Z,100150.19
2022-10-31T19:01:21.260Z,100141.84
2022-10-31T19:04:06.883Z,100134.75
2022-10-31T19:06:51.780Z,100126.53
2022-10-31T19:09:37.539Z,100119.13
2022-10-31T19:12:22.819Z,100118.19
2022-10-31T19:15:08.332Z,100107.63
2022-10-31T19:17:53.507Z,100101.22
2022-10-31T19:20:39.456Z,100103.69
2022-10-31T19:23:25.210Z,100087.72
2022-10-31T19:26:10.643Z,100086.44
2022-10-31T19:28:56.712Z,100077.53
2022-10-31T19:31:42.408Z,100078.06
2022-10-31T19:34:27.641Z,100071.66
2022-10-31T19:37:12.495Z,100074.81
2022-10-31T19:39:57.345Z,100060.66
2022-10-31T19:42:42.195Z,100052.56
2022-10-31T19:45:27.194Z,100039.84
2022-10-31T19:48:12.266Z,100049.34
2022-10-31T19:51:18.037Z,100048.19
2022-10-31T19:54:03.304Z,100047.06
2022-10-31T19:56:48.425Z,100043.28
2022-10-31T19:59:38.984Z,100038.16
2022-10-31T20:02:24.404Z,100047.56
2022-10-31T20:05:09.679Z,100035.19
2022-10-31T20:07:56.458Z,100019.00
2022-10-31T20:10:42.750Z,100019.34
2022-10-31T20:13:30.002Z,99999.69
2022-10-31T20:16:16.458Z,100006.31
2022-10-31T20:19:02.173Z,99984.00
2022-10-31T20:21:47.795Z,99966.13
2022-10-31T20:24:33.271Z,99973.59
2022-10-31T20:27:18.561Z,99965.38
2022-10-31T20:30:04.047Z,99957.94
2022-10-31T20:32:50.221Z,99948.19
2022-10-31T20:35:40.033Z,99956.63
2022-10-31T20:38:25.257Z,99951.16
2022-10-31T20:41:11.605Z,99943.44
2022-10-31T20:43:58.321Z,99936.19
2022-10-31T20:46:43.357Z,99939.97
2022-10-31T20:49:30.092Z,99937.66
2022-10-31T20:52:15.375Z,99930.88
2022-10-31T20:55:00.545Z,99915.47
2022-10-31T20:57:45.637Z,99922.41
2022-10-31T21:00:30.468Z,99908.03
2022-10-31T21:03:15.386Z,99914.44
2022-10-31T21:06:01.418Z,99903.16
2022-10-31T21:08:47.241Z,99892.91
2022-10-31T21:11:32.644Z,99896.00
2022-10-31T21:14:17.862Z,99897.16
2022-10-31T21:17:04.711Z,99902.72
2022-10-31T21:19:49.909Z,99906.69
2022-10-31T21:22:34.915Z,99897.78
2022-10-31T21:25:20.811Z,99899.28
2022-10-31T21:28:06.594Z,99898.59
2022-10-31T21:30:52.109Z,99891.66
2022-10-31T21:33:37.745Z,99877.66
2022-10-31T21:36:23.111Z,99866.28
2022-10-31T21:39:09.893Z,99875.16
2022-10-31T21:41:54.965Z,99860.47
2022-10-31T21:44:40.023Z,99861.84
2022-10-31T21:47:25.064Z,99860.03
2022-10-31T21:50:10.095Z,99858.66
2022-10-31T21:52:55.056Z,99855.25
2022-10-31T21:55:39.973Z,99836.47
2022-10-31T21:58:24.986Z,99829.72
2022-10-31T22:01:10.476Z,99832.19
2022-10-31T22:03:55.661Z,99828.41
2022-10-31T22:06:40.787Z,99837.81
2022-10-31T22:09:26.043Z,99845.88
2022-10-31T22:12:11.295Z,99873.56
2022-10-31T22:14:56.112Z,99847.41
2022-10-31T22:17:41.187Z,99854.22
2022-10-31T22:20:26.180Z,99854.72
2022-10-31T22:23:11.379Z,99831.91
2022-10-31T22:25:56.762Z,99849.09
2022-10-31T22:28:47.367Z,99836.03
2022-10-31T22:31:33.943Z,99845.59
2022-10-31T22:34:19.186Z,99854.34
2022-10-31T22:37:04.439Z,99847.41
2022-10-31T22:39:49.551Z,99854.34
2022-10-31T22:42:34.744Z,99853.00
2022-10-31T22:45:19.849Z,99853.81
2022-10-31T22:48:05.232Z,99851.34
2022-10-31T22:50:50.459Z,99856.63
2022-10-31T22:53:36.636Z,99859.25
2022-10-31T22:56:23.158Z,99850.16
2022-10-31T22:59:12.657Z,99851.66
2022-10-31T23:01:58.056Z,99856.75
2022-10-31T23:04:43.165Z,99846.91
2022-10-31T23:07:32.097Z,99842.75
2022-10-31T23:10:18.342Z,99888.00
2022-10-31T23:13:22.419Z,99879.34
2022-10-31T23:16:08.698Z,99875.06
2022-10-31T23:18:53.582Z,99883.38
2022-10-31T23:21:58.729Z,99893.50
2022-10-31T23:24:46.609Z,99904.59
2022-10-31T23:27:31.902Z,99897.41
2022-10-31T23:30:17.024Z,99923.44
2022-10-31T23:33:02.447Z,99904.38
2022-10-31T23:35:47.690Z,99897.59
2022-10-31T23:38:32.883Z,99908.81
2022-10-31T23:41:18.114Z,99890.00
2022-10-31T23:44:03.337Z,99893.91
2022-10-31T23:46:48.629Z,99905.13
2022-10-31T23:49:33.908Z,99907.91
2022-10-31T23:52:19.793Z,99916.59
2022-10-31T23:55:05.536Z,99917.72
2022-10-31T23:57:50.473Z,99923.66
